AFR652 LFPG-FMEE
Flight info
| Callsign | AFR652 |
|---|---|
| Flight time | 6h 23m |
| Altitude | 31000 |
| Route | LANVI DCT DEVDI DCT RIPUS DCT RESIA DCT LAPAB/N0490F330 DCT LABIN DCT ELGUS DCT AIOSA DCT NOSTO DCT SALUN N705 BOPIX N710 TAKRI P751 LXR M999 SEDVA/N0489F350 M999 JDW G650 RASKA/N0499F340 G650 ULONI UG650 KONET/N0498F350 DCT XADOX DCT DWA UN304 APKAK/N0496F360 UN304 DENLI/N0492F370 UN304 UVENA UVENA2R |
| Aircraft | B77W/H-SDE1E2E3FGHIJ2J3J4J5M1RWXY/LB1D1 |
Departure
| Time | 2026-05-08 18:29 |
|---|---|
| Airport | Charles de Gaulle International Airport (LFPG) |
Arrival
| Time | 2026-05-09 00:52 |
|---|---|
| Airport | Roland Garros Airport (FMEE) |
| Time | Latitude | Longitude | Altitude | Speed | Heading |
|---|---|---|---|---|---|
| 2026-05-08 17:55 | 49.00123 | 2.57531 | 358 ft | 0 kts | 356° |
| 2026-05-08 18:12 | 49.00113 | 2.57532 | 357 ft | 2 kts | 3° |
| 2026-05-08 18:13 | 49.00098 | 2.57528 | 357 ft | 2 kts | 18° |
| 2026-05-08 18:13 | 49.00084 | 2.57520 | 357 ft | 2 kts | 30° |
| 2026-05-08 18:13 | 49.00072 | 2.57507 | 358 ft | 2 kts | 41° |
| 2026-05-08 18:13 | 49.00061 | 2.57491 | 358 ft | 2 kts | 53° |
| 2026-05-08 18:14 | 49.00053 | 2.57472 | 358 ft | 2 kts | 65° |
| 2026-05-08 18:14 | 49.00048 | 2.57450 | 358 ft | 2 kts | 77° |
| 2026-05-08 18:14 | 49.00046 | 2.57430 | 358 ft | 0 kts | 87° |
| 2026-05-08 18:14 | 49.00046 | 2.57426 | 358 ft | 0 kts | 87° |
| 2026-05-08 18:18 | 49.00046 | 2.57427 | 358 ft | 0 kts | 87° |
| 2026-05-08 18:19 | 49.00046 | 2.57429 | 358 ft | 1 kts | 87° |
| 2026-05-08 18:20 | 49.00048 | 2.57467 | 358 ft | 5 kts | 86° |
| 2026-05-08 18:20 | 49.00053 | 2.57564 | 357 ft | 11 kts | 84° |
| 2026-05-08 18:20 | 49.00060 | 2.57683 | 356 ft | 10 kts | 85° |
| 2026-05-08 18:20 | 49.00066 | 2.57802 | 355 ft | 11 kts | 86° |
| 2026-05-08 18:21 | 49.00073 | 2.57924 | 353 ft | 11 kts | 85° |
| 2026-05-08 18:21 | 49.00080 | 2.58053 | 352 ft | 12 kts | 85° |
| 2026-05-08 18:21 | 49.00087 | 2.58183 | 349 ft | 12 kts | 86° |
| 2026-05-08 18:21 | 49.00086 | 2.58295 | 348 ft | 8 kts | 116° |
| 2026-05-08 18:22 | 49.00040 | 2.58322 | 348 ft | 7 kts | 199° |
| 2026-05-08 18:22 | 49.00011 | 2.58271 | 348 ft | 6 kts | 253° |
| 2026-05-08 18:22 | 49.00004 | 2.58191 | 349 ft | 9 kts | 265° |
| 2026-05-08 18:22 | 48.99997 | 2.58064 | 351 ft | 15 kts | 265° |
| 2026-05-08 18:23 | 48.99987 | 2.57875 | 353 ft | 20 kts | 266° |
| 2026-05-08 18:23 | 48.99974 | 2.57629 | 356 ft | 26 kts | 265° |
| 2026-05-08 18:23 | 48.99959 | 2.57352 | 358 ft | 24 kts | 266° |
| 2026-05-08 18:23 | 48.99946 | 2.57115 | 359 ft | 20 kts | 266° |
| 2026-05-08 18:24 | 48.99936 | 2.56911 | 360 ft | 18 kts | 264° |
| 2026-05-08 18:24 | 48.99926 | 2.56734 | 359 ft | 15 kts | 266° |
| 2026-05-08 18:24 | 48.99918 | 2.56578 | 359 ft | 13 kts | 265° |
| 2026-05-08 18:24 | 48.99911 | 2.56441 | 358 ft | 12 kts | 266° |
| 2026-05-08 18:25 | 48.99907 | 2.56357 | 357 ft | 12 kts | 266° |
| 2026-05-08 18:25 | 48.99897 | 2.56184 | 355 ft | 15 kts | 265° |
| 2026-05-08 18:25 | 48.99886 | 2.56001 | 352 ft | 15 kts | 266° |
| 2026-05-08 18:25 | 48.99900 | 2.55883 | 350 ft | 11 kts | 285° |
| 2026-05-08 18:26 | 48.99894 | 2.55813 | 349 ft | 5 kts | 229° |
| 2026-05-08 18:26 | 48.99860 | 2.55795 | 349 ft | 5 kts | 178° |
| 2026-05-08 18:26 | 48.99826 | 2.55799 | 349 ft | 4 kts | 175° |
| 2026-05-08 18:26 | 48.99793 | 2.55804 | 349 ft | 5 kts | 174° |
| 2026-05-08 18:27 | 48.99745 | 2.55809 | 348 ft | 8 kts | 177° |
| 2026-05-08 18:27 | 48.99705 | 2.55813 | 348 ft | 8 kts | 176° |
| 2026-05-08 18:27 | 48.99621 | 2.55824 | 348 ft | 7 kts | 174° |
| 2026-05-08 18:27 | 48.99601 | 2.55846 | 348 ft | 2 kts | 103° |
| 2026-05-08 18:28 | 48.99600 | 2.55868 | 348 ft | 2 kts | 85° |
| 2026-05-08 18:28 | 48.99605 | 2.55945 | 349 ft | 21 kts | 85° |
| 2026-05-08 18:28 | 48.99635 | 2.56501 | 355 ft | 89 kts | 85° |
| 2026-05-08 18:28 | 48.99706 | 2.57835 | 351 ft | 160 kts | 85° |
| 2026-05-08 18:29 | 48.99804 | 2.59750 | 641 ft | 195 kts | 84° |
| 2026-05-08 18:29 | 48.99916 | 2.61772 | 1659 ft | 192 kts | 84° |
| 2026-05-08 18:29 | 49.00023 | 2.63737 | 2284 ft | 191 kts | 83° |
| 2026-05-08 18:29 | 49.00136 | 2.65837 | 2542 ft | 208 kts | 84° |
| 2026-05-08 18:30 | 49.00255 | 2.68091 | 2878 ft | 221 kts | 84° |
| 2026-05-08 18:30 | 49.00378 | 2.70446 | 3393 ft | 225 kts | 84° |
| 2026-05-08 18:30 | 49.00504 | 2.72869 | 3857 ft | 235 kts | 84° |
| 2026-05-08 18:30 | 49.00634 | 2.75389 | 4322 ft | 245 kts | 84° |
| 2026-05-08 18:31 | 49.00760 | 2.78020 | 4744 ft | 260 kts | 89° |
| 2026-05-08 18:31 | 49.00568 | 2.80795 | 5325 ft | 267 kts | 98° |
| 2026-05-08 18:31 | 49.00255 | 2.83601 | 6005 ft | 272 kts | 99° |
| 2026-05-08 18:31 | 48.99934 | 2.86421 | 6660 ft | 275 kts | 99° |
| 2026-05-08 18:32 | 48.99602 | 2.89313 | 7350 ft | 278 kts | 100° |
| 2026-05-08 18:32 | 48.99272 | 2.92178 | 8049 ft | 279 kts | 100° |
| 2026-05-08 18:32 | 48.98932 | 2.95093 | 8688 ft | 282 kts | 101° |
| 2026-05-08 18:32 | 48.98608 | 2.98050 | 9328 ft | 286 kts | 98° |
| 2026-05-08 18:33 | 48.98360 | 3.01007 | 9983 ft | 287 kts | 98° |
| 2026-05-08 18:33 | 48.98111 | 3.04053 | 10417 ft | 298 kts | 98° |
| 2026-05-08 18:33 | 48.97846 | 3.07280 | 10691 ft | 315 kts | 98° |
| 2026-05-08 18:33 | 48.97566 | 3.10687 | 11001 ft | 332 kts | 98° |
| 2026-05-08 18:34 | 48.97273 | 3.14227 | 11313 ft | 348 kts | 98° |
| 2026-05-08 18:34 | 48.96966 | 3.17922 | 11654 ft | 363 kts | 98° |
| 2026-05-08 18:34 | 48.96639 | 3.21848 | 12015 ft | 378 kts | 97° |
| 2026-05-08 18:34 | 48.96305 | 3.25824 | 12440 ft | 390 kts | 97° |
| 2026-05-08 18:35 | 48.95958 | 3.29958 | 12937 ft | 399 kts | 97° |
| 2026-05-08 18:35 | 48.95445 | 3.34151 | 13214 ft | 408 kts | 107° |
| 2026-05-08 18:35 | 48.94511 | 3.38201 | 14088 ft | 407 kts | 111° |
| 2026-05-08 18:35 | 48.93519 | 3.42206 | 15004 ft | 405 kts | 111° |
| 2026-05-08 18:36 | 48.92532 | 3.46175 | 15688 ft | 409 kts | 111° |
| 2026-05-08 18:36 | 48.91519 | 3.50240 | 16276 ft | 416 kts | 111° |
| 2026-05-08 18:36 | 48.90489 | 3.54368 | 16906 ft | 421 kts | 111° |
| 2026-05-08 18:36 | 48.89439 | 3.58565 | 17592 ft | 424 kts | 111° |
| 2026-05-08 18:37 | 48.88396 | 3.62729 | 18219 ft | 429 kts | 110° |
| 2026-05-08 18:37 | 48.87329 | 3.66976 | 18834 ft | 433 kts | 111° |
| 2026-05-08 18:37 | 48.86256 | 3.71245 | 19388 ft | 438 kts | 111° |
| 2026-05-08 18:37 | 48.85161 | 3.75588 | 19876 ft | 444 kts | 111° |
| 2026-05-08 18:38 | 48.84053 | 3.79976 | 20431 ft | 449 kts | 111° |
| 2026-05-08 18:38 | 48.82933 | 3.84402 | 21041 ft | 452 kts | 110° |
| 2026-05-08 18:38 | 48.81804 | 3.88856 | 21579 ft | 457 kts | 110° |
| 2026-05-08 18:38 | 48.80660 | 3.93357 | 22092 ft | 462 kts | 110° |
| 2026-05-08 18:39 | 48.79503 | 3.97900 | 22560 ft | 467 kts | 110° |
| 2026-05-08 18:39 | 48.78323 | 4.02528 | 23100 ft | 471 kts | 110° |
| 2026-05-08 18:39 | 48.77141 | 4.07149 | 23665 ft | 473 kts | 110° |
| 2026-05-08 18:39 | 48.75964 | 4.11744 | 24084 ft | 478 kts | 110° |
| 2026-05-08 18:40 | 48.74754 | 4.16456 | 24474 ft | 484 kts | 110° |
| 2026-05-08 18:40 | 48.73524 | 4.21237 | 24843 ft | 489 kts | 110° |
| 2026-05-08 18:40 | 48.72275 | 4.26083 | 25256 ft | 495 kts | 110° |
| 2026-05-08 18:40 | 48.71032 | 4.30893 | 25634 ft | 499 kts | 110° |
| 2026-05-08 18:41 | 48.69761 | 4.35793 | 26083 ft | 502 kts | 110° |
| 2026-05-08 18:41 | 48.68481 | 4.40720 | 26534 ft | 506 kts | 110° |
| 2026-05-08 18:41 | 48.67186 | 4.45690 | 26874 ft | 511 kts | 110° |
| 2026-05-08 18:41 | 48.65875 | 4.50714 | 27252 ft | 515 kts | 110° |
| 2026-05-08 18:42 | 48.64571 | 4.55694 | 27646 ft | 519 kts | 110° |
| 2026-05-08 18:42 | 48.63241 | 4.60769 | 28054 ft | 522 kts | 110° |
| 2026-05-08 18:42 | 48.61888 | 4.65915 | 28455 ft | 526 kts | 111° |
| 2026-05-08 18:42 | 48.60529 | 4.71075 | 28800 ft | 530 kts | 111° |
| 2026-05-08 18:43 | 48.59156 | 4.76274 | 29109 ft | 534 kts | 111° |
| 2026-05-08 18:43 | 48.57797 | 4.81412 | 29520 ft | 536 kts | 111° |
| 2026-05-08 18:43 | 48.56416 | 4.86619 | 30012 ft | 536 kts | 111° |
| 2026-05-08 18:43 | 48.55031 | 4.91827 | 30478 ft | 536 kts | 111° |
| 2026-05-08 18:44 | 48.53647 | 4.97020 | 30914 ft | 537 kts | 111° |
| 2026-05-08 18:44 | 48.52248 | 5.02256 | 31023 ft | 540 kts | 111° |
| 2026-05-08 18:44 | 48.49455 | 5.12680 | 31039 ft | 534 kts | 111° |
| 2026-05-08 18:45 | 48.46645 | 5.23113 | 31037 ft | 536 kts | 111° |
| 2026-05-08 18:45 | 48.43792 | 5.33659 | 31046 ft | 535 kts | 111° |
| 2026-05-08 18:46 | 48.40980 | 5.44004 | 31042 ft | 534 kts | 111° |
| 2026-05-08 18:46 | 48.38169 | 5.54299 | 31030 ft | 536 kts | 112° |
| 2026-05-08 18:47 | 48.35315 | 5.64698 | 31038 ft | 537 kts | 112° |
| 2026-05-08 18:47 | 48.32470 | 5.75012 | 31027 ft | 537 kts | 113° |
| 2026-05-08 18:48 | 48.29488 | 5.85331 | 31033 ft | 539 kts | 116° |
| 2026-05-08 18:48 | 48.26241 | 5.95456 | 31033 ft | 538 kts | 116° |
| 2026-05-08 18:49 | 48.23001 | 6.05548 | 31053 ft | 541 kts | 116° |
| 2026-05-08 18:49 | 48.19767 | 6.15617 | 31026 ft | 538 kts | 116° |
| 2026-05-08 18:50 | 48.16505 | 6.25747 | 31033 ft | 542 kts | 116° |
| 2026-05-08 18:50 | 48.13205 | 6.35968 | 31039 ft | 541 kts | 116° |
| 2026-05-08 18:51 | 48.09930 | 6.46075 | 31038 ft | 540 kts | 116° |
| 2026-05-08 18:51 | 48.06639 | 6.56193 | 31060 ft | 544 kts | 116° |
| 2026-05-08 18:52 | 48.03326 | 6.66343 | 31064 ft | 543 kts | 117° |
| 2026-05-08 18:52 | 48.00009 | 6.76462 | 31040 ft | 541 kts | 117° |
| 2026-05-08 18:53 | 47.96693 | 6.86542 | 31048 ft | 543 kts | 117° |
| 2026-05-08 18:53 | 47.93358 | 6.96639 | 31068 ft | 540 kts | 118° |
| 2026-05-08 18:54 | 47.90016 | 7.06717 | 31060 ft | 540 kts | 117° |
| 2026-05-08 18:54 | 47.86665 | 7.16782 | 31057 ft | 538 kts | 117° |
| 2026-05-08 18:55 | 47.81667 | 7.31723 | 31048 ft | 537 kts | 117° |
| 2026-05-08 18:56 | 47.78347 | 7.41599 | 31044 ft | 535 kts | 117° |
| 2026-05-08 18:56 | 47.75004 | 7.51500 | 31035 ft | 536 kts | 118° |
| 2026-05-08 18:57 | 47.70960 | 7.60658 | 31047 ft | 530 kts | 127° |
| 2026-05-08 18:57 | 47.66620 | 7.69444 | 31044 ft | 529 kts | 128° |
| 2026-05-08 18:58 | 47.62251 | 7.78240 | 31046 ft | 531 kts | 128° |
| 2026-05-08 18:58 | 47.57876 | 7.87015 | 31052 ft | 529 kts | 128° |
| 2026-05-08 18:59 | 47.53515 | 7.95732 | 31052 ft | 527 kts | 128° |
| 2026-05-08 18:59 | 47.49156 | 8.04413 | 31042 ft | 530 kts | 128° |
| 2026-05-08 19:00 | 47.45493 | 8.11687 | 31049 ft | 530 kts | 128° |
| 2026-05-08 19:00 | 47.40366 | 8.21837 | 31036 ft | 527 kts | 128° |
| 2026-05-08 19:01 | 47.35967 | 8.30513 | 31046 ft | 530 kts | 128° |
| 2026-05-08 19:01 | 47.31558 | 8.39184 | 31050 ft | 527 kts | 128° |
| 2026-05-08 19:02 | 47.27150 | 8.47823 | 31050 ft | 529 kts | 128° |
| 2026-05-08 19:02 | 47.22812 | 8.56473 | 31061 ft | 528 kts | 127° |
| 2026-05-08 19:03 | 47.18480 | 8.65258 | 31069 ft | 530 kts | 127° |
| 2026-05-08 19:03 | 47.14143 | 8.74017 | 31085 ft | 528 kts | 127° |
| 2026-05-08 19:04 | 47.09824 | 8.82703 | 31085 ft | 525 kts | 127° |
| 2026-05-08 19:04 | 47.05524 | 8.91320 | 31083 ft | 526 kts | 127° |
| 2026-05-08 19:05 | 47.01188 | 8.99978 | 31107 ft | 529 kts | 127° |
| 2026-05-08 19:05 | 46.96842 | 9.08631 | 31096 ft | 526 kts | 127° |
| 2026-05-08 19:06 | 46.92502 | 9.17243 | 31102 ft | 525 kts | 128° |
| 2026-05-08 19:06 | 46.88157 | 9.25839 | 31085 ft | 523 kts | 128° |
| 2026-05-08 19:07 | 46.83837 | 9.34355 | 31117 ft | 524 kts | 128° |
| 2026-05-08 19:07 | 46.79535 | 9.42814 | 31116 ft | 521 kts | 128° |
| 2026-05-08 19:08 | 46.75207 | 9.51296 | 31106 ft | 520 kts | 128° |
| 2026-05-08 19:08 | 46.70867 | 9.59775 | 31103 ft | 518 kts | 128° |
| 2026-05-08 19:09 | 46.66560 | 9.68166 | 31101 ft | 517 kts | 129° |
| 2026-05-08 19:09 | 46.62227 | 9.76580 | 31087 ft | 515 kts | 129° |
| 2026-05-08 19:10 | 46.58641 | 9.83524 | 31119 ft | 516 kts | 129° |
| 2026-05-08 19:10 | 46.53639 | 9.93182 | 31145 ft | 515 kts | 129° |
| 2026-05-08 19:11 | 46.49357 | 10.01425 | 31115 ft | 512 kts | 129° |
| 2026-05-08 19:11 | 46.45177 | 10.09756 | 31097 ft | 512 kts | 126° |
| 2026-05-08 19:12 | 46.41132 | 10.18310 | 31089 ft | 511 kts | 126° |
| 2026-05-08 19:12 | 46.37098 | 10.26788 | 31104 ft | 511 kts | 127° |
| 2026-05-08 19:13 | 46.33072 | 10.35203 | 31124 ft | 509 kts | 127° |
| 2026-05-08 19:13 | 46.29046 | 10.43579 | 31122 ft | 510 kts | 127° |
| 2026-05-08 19:14 | 46.25006 | 10.51955 | 31105 ft | 506 kts | 127° |
| 2026-05-08 19:14 | 46.20989 | 10.60256 | 31090 ft | 503 kts | 127° |
| 2026-05-08 19:15 | 46.16986 | 10.68499 | 31089 ft | 503 kts | 128° |
| 2026-05-08 19:15 | 46.12972 | 10.76741 | 31076 ft | 500 kts | 128° |
| 2026-05-08 19:16 | 46.08976 | 10.84921 | 31078 ft | 499 kts | 128° |
| 2026-05-08 19:16 | 46.05013 | 10.93009 | 31076 ft | 498 kts | 128° |
| 2026-05-08 19:17 | 46.01012 | 11.01152 | 31076 ft | 496 kts | 128° |
| 2026-05-08 19:17 | 45.97017 | 11.09260 | 31050 ft | 496 kts | 128° |
| 2026-05-08 19:18 | 45.93051 | 11.17283 | 31046 ft | 497 kts | 128° |
| 2026-05-08 19:18 | 45.89017 | 11.25422 | 31051 ft | 499 kts | 128° |
| 2026-05-08 19:19 | 45.85003 | 11.33500 | 31063 ft | 498 kts | 128° |
| 2026-05-08 19:19 | 45.80956 | 11.41617 | 31052 ft | 499 kts | 128° |
| 2026-05-08 19:20 | 45.77597 | 11.48339 | 31067 ft | 500 kts | 129° |
| 2026-05-08 19:20 | 45.72911 | 11.57690 | 31037 ft | 498 kts | 128° |
| 2026-05-08 19:21 | 45.68833 | 11.65799 | 31048 ft | 499 kts | 129° |
| 2026-05-08 19:21 | 45.64817 | 11.73766 | 31032 ft | 497 kts | 129° |
| 2026-05-08 19:22 | 45.60756 | 11.81797 | 31036 ft | 497 kts | 129° |
| 2026-05-08 19:22 | 45.56709 | 11.89779 | 31035 ft | 496 kts | 129° |
| 2026-05-08 19:23 | 45.52644 | 11.97774 | 31029 ft | 495 kts | 129° |
| 2026-05-08 19:23 | 45.48769 | 12.05850 | 31033 ft | 496 kts | 127° |
| 2026-05-08 19:24 | 45.44906 | 12.13972 | 31028 ft | 494 kts | 128° |
| 2026-05-08 19:24 | 45.41021 | 12.22096 | 31038 ft | 495 kts | 127° |
| 2026-05-08 19:25 | 45.37157 | 12.30143 | 31030 ft | 495 kts | 127° |
| 2026-05-08 19:25 | 45.33243 | 12.38266 | 31033 ft | 496 kts | 127° |
| 2026-05-08 19:26 | 45.29374 | 12.46269 | 31024 ft | 495 kts | 127° |
| 2026-05-08 19:26 | 45.25474 | 12.54312 | 31033 ft | 496 kts | 127° |
| 2026-05-08 19:27 | 45.21551 | 12.62381 | 31033 ft | 496 kts | 127° |
| 2026-05-08 19:27 | 45.17623 | 12.70436 | 31024 ft | 496 kts | 128° |
| 2026-05-08 19:28 | 45.13686 | 12.78485 | 31031 ft | 497 kts | 128° |
| 2026-05-08 19:28 | 45.09744 | 12.86522 | 31027 ft | 496 kts | 128° |
| 2026-05-08 19:29 | 45.05792 | 12.94557 | 31028 ft | 497 kts | 128° |
| 2026-05-08 19:29 | 45.01825 | 13.02599 | 31038 ft | 498 kts | 127° |
| 2026-05-08 19:30 | 44.97607 | 13.10352 | 31008 ft | 493 kts | 137° |
| 2026-05-08 19:30 | 44.92642 | 13.17152 | 31025 ft | 495 kts | 139° |
| 2026-05-08 19:31 | 44.87662 | 13.23859 | 31014 ft | 493 kts | 139° |
| 2026-05-08 19:31 | 44.82686 | 13.30539 | 31049 ft | 497 kts | 139° |
| 2026-05-08 19:32 | 44.77704 | 13.37210 | 31029 ft | 496 kts | 139° |
| 2026-05-08 19:32 | 44.72687 | 13.43909 | 31031 ft | 496 kts | 139° |
| 2026-05-08 19:33 | 44.67700 | 13.50551 | 31039 ft | 499 kts | 139° |
| 2026-05-08 19:33 | 44.62683 | 13.57217 | 31043 ft | 497 kts | 139° |
| 2026-05-08 19:34 | 44.57647 | 13.63890 | 31045 ft | 498 kts | 139° |
| 2026-05-08 19:34 | 44.52608 | 13.70551 | 31029 ft | 498 kts | 140° |
| 2026-05-08 19:35 | 44.47565 | 13.77201 | 31038 ft | 497 kts | 140° |
| 2026-05-08 19:35 | 44.42556 | 13.83789 | 31031 ft | 496 kts | 140° |
| 2026-05-08 19:36 | 44.37510 | 13.90410 | 31027 ft | 496 kts | 139° |
| 2026-05-08 19:36 | 44.32493 | 13.96975 | 31041 ft | 497 kts | 140° |
| 2026-05-08 19:37 | 44.27447 | 14.03564 | 31028 ft | 496 kts | 139° |
| 2026-05-08 19:37 | 44.22379 | 14.10163 | 31033 ft | 498 kts | 139° |
| 2026-05-08 19:38 | 44.17323 | 14.16732 | 31032 ft | 497 kts | 139° |
| 2026-05-08 19:38 | 44.12271 | 14.23280 | 31036 ft | 497 kts | 139° |
| 2026-05-08 19:39 | 44.07214 | 14.29817 | 31029 ft | 498 kts | 139° |
| 2026-05-08 19:39 | 44.02134 | 14.36368 | 31032 ft | 499 kts | 139° |
| 2026-05-08 19:40 | 43.97067 | 14.42887 | 31027 ft | 499 kts | 139° |
| 2026-05-08 19:40 | 43.91957 | 14.49443 | 31027 ft | 504 kts | 140° |
| 2026-05-08 19:41 | 43.86824 | 14.56015 | 31048 ft | 501 kts | 140° |
| 2026-05-08 19:41 | 43.81718 | 14.62535 | 31041 ft | 506 kts | 140° |
| 2026-05-08 19:42 | 43.76569 | 14.69097 | 31018 ft | 503 kts | 141° |
| 2026-05-08 19:42 | 43.71330 | 14.75751 | 31047 ft | 511 kts | 141° |
| 2026-05-08 19:43 | 43.66136 | 14.82337 | 31025 ft | 509 kts | 141° |
| 2026-05-08 19:43 | 43.60857 | 14.89011 | 31029 ft | 515 kts | 141° |
| 2026-05-08 19:44 | 43.55628 | 14.95609 | 31023 ft | 511 kts | 141° |
| 2026-05-08 19:44 | 43.50530 | 15.02643 | 31035 ft | 523 kts | 136° |
| 2026-05-08 19:45 | 43.45591 | 15.09979 | 31029 ft | 519 kts | 136° |
| 2026-05-08 19:45 | 43.40681 | 15.17205 | 31044 ft | 522 kts | 136° |
| 2026-05-08 19:46 | 43.35674 | 15.24525 | 31023 ft | 524 kts | 136° |
| 2026-05-08 19:46 | 43.28193 | 15.35399 | 31048 ft | 527 kts | 136° |
| 2026-05-08 19:47 | 43.23174 | 15.42661 | 31009 ft | 524 kts | 136° |
| 2026-05-08 19:47 | 43.18154 | 15.49901 | 31041 ft | 526 kts | 136° |
| 2026-05-08 19:48 | 43.13118 | 15.57148 | 31025 ft | 523 kts | 136° |
| 2026-05-08 19:48 | 43.08073 | 15.64383 | 31047 ft | 525 kts | 136° |
| 2026-05-08 19:49 | 43.03008 | 15.71630 | 31045 ft | 527 kts | 137° |
| 2026-05-08 19:49 | 42.97947 | 15.78852 | 31034 ft | 526 kts | 136° |
| 2026-05-08 19:50 | 42.92942 | 15.85978 | 31017 ft | 521 kts | 137° |
| 2026-05-08 19:50 | 42.87867 | 15.93182 | 31026 ft | 526 kts | 137° |
| 2026-05-08 19:51 | 42.82813 | 16.00340 | 31025 ft | 525 kts | 137° |
| 2026-05-08 19:51 | 42.77758 | 16.07482 | 31045 ft | 524 kts | 136° |
| 2026-05-08 19:52 | 42.72688 | 16.14624 | 31019 ft | 527 kts | 136° |
| 2026-05-08 19:52 | 42.67600 | 16.21776 | 31025 ft | 525 kts | 137° |
| 2026-05-08 19:53 | 42.62495 | 16.28933 | 31026 ft | 528 kts | 137° |
| 2026-05-08 19:53 | 42.57383 | 16.36081 | 31021 ft | 531 kts | 137° |
| 2026-05-08 19:54 | 42.52228 | 16.43272 | 31031 ft | 532 kts | 137° |
| 2026-05-08 19:54 | 42.47123 | 16.50377 | 31033 ft | 531 kts | 137° |
| 2026-05-08 19:55 | 42.41940 | 16.57571 | 31020 ft | 533 kts | 137° |
| 2026-05-08 19:55 | 42.36779 | 16.64717 | 31024 ft | 536 kts | 137° |
| 2026-05-08 19:56 | 42.31577 | 16.71901 | 31006 ft | 535 kts | 137° |
| 2026-05-08 19:56 | 42.26339 | 16.79115 | 31030 ft | 542 kts | 138° |
| 2026-05-08 19:57 | 42.21084 | 16.86339 | 31019 ft | 538 kts | 138° |
| 2026-05-08 19:57 | 42.15781 | 16.93605 | 31010 ft | 546 kts | 138° |
| 2026-05-08 19:58 | 42.10424 | 17.00929 | 31038 ft | 548 kts | 138° |
| 2026-05-08 19:58 | 42.05111 | 17.08175 | 31030 ft | 546 kts | 138° |
| 2026-05-08 19:59 | 41.99743 | 17.15476 | 31031 ft | 550 kts | 138° |
| 2026-05-08 19:59 | 41.94358 | 17.22721 | 31028 ft | 538 kts | 141° |
| 2026-05-08 20:00 | 41.88364 | 17.28613 | 31055 ft | 533 kts | 151° |
| 2026-05-08 20:00 | 41.82175 | 17.33975 | 31021 ft | 529 kts | 151° |
| 2026-05-08 20:01 | 41.75968 | 17.39315 | 31032 ft | 531 kts | 151° |
| 2026-05-08 20:01 | 41.69774 | 17.44627 | 31030 ft | 526 kts | 151° |
| 2026-05-08 20:02 | 41.63580 | 17.49918 | 31025 ft | 529 kts | 151° |
| 2026-05-08 20:02 | 41.57393 | 17.55192 | 31030 ft | 526 kts | 151° |
| 2026-05-08 20:03 | 41.51208 | 17.60447 | 31018 ft | 530 kts | 151° |
| 2026-05-08 20:03 | 41.44952 | 17.65753 | 31014 ft | 529 kts | 152° |
| 2026-05-08 20:04 | 41.38766 | 17.70985 | 31011 ft | 530 kts | 152° |
| 2026-05-08 20:04 | 41.32491 | 17.76280 | 30996 ft | 533 kts | 152° |
| 2026-05-08 20:05 | 41.26194 | 17.81581 | 30987 ft | 536 kts | 152° |
| 2026-05-08 20:05 | 41.19903 | 17.86865 | 30986 ft | 539 kts | 152° |
| 2026-05-08 20:06 | 41.13583 | 17.92163 | 30984 ft | 536 kts | 152° |
| 2026-05-08 20:06 | 41.07179 | 17.97514 | 30983 ft | 546 kts | 152° |
| 2026-05-08 20:07 | 41.00743 | 18.02884 | 30983 ft | 547 kts | 152° |
| 2026-05-08 20:07 | 40.94329 | 18.08224 | 30968 ft | 542 kts | 152° |
| 2026-05-08 20:08 | 40.87910 | 18.13553 | 30970 ft | 544 kts | 152° |
| 2026-05-08 20:08 | 40.81539 | 18.18831 | 30974 ft | 541 kts | 152° |
| 2026-05-08 20:09 | 40.75112 | 18.24142 | 30975 ft | 542 kts | 152° |
| 2026-05-08 20:09 | 40.68757 | 18.29383 | 30980 ft | 537 kts | 152° |
| 2026-05-08 20:10 | 40.62416 | 18.34598 | 30982 ft | 539 kts | 152° |
| 2026-05-08 20:10 | 40.56083 | 18.39796 | 30980 ft | 537 kts | 152° |
| 2026-05-08 20:11 | 40.49740 | 18.44991 | 30984 ft | 538 kts | 152° |
| 2026-05-08 20:11 | 40.43356 | 18.50207 | 30997 ft | 538 kts | 152° |
| 2026-05-08 20:12 | 40.36999 | 18.55389 | 30992 ft | 540 kts | 152° |
| 2026-05-08 20:12 | 40.30648 | 18.60554 | 30999 ft | 540 kts | 152° |
| 2026-05-08 20:13 | 40.24254 | 18.65744 | 30986 ft | 538 kts | 153° |
| 2026-05-08 20:13 | 40.17882 | 18.70904 | 30985 ft | 541 kts | 153° |
| 2026-05-08 20:14 | 40.11499 | 18.76060 | 30995 ft | 542 kts | 153° |
| 2026-05-08 20:14 | 40.05075 | 18.81239 | 30993 ft | 543 kts | 153° |
| 2026-05-08 20:15 | 39.98652 | 18.86405 | 30995 ft | 545 kts | 153° |
| 2026-05-08 20:15 | 39.92203 | 18.91581 | 31000 ft | 541 kts | 153° |
| 2026-05-08 20:16 | 39.85785 | 18.96719 | 30988 ft | 545 kts | 153° |
| 2026-05-08 20:16 | 39.79501 | 19.02194 | 31004 ft | 547 kts | 146° |
| 2026-05-08 20:17 | 39.73528 | 19.08378 | 30997 ft | 550 kts | 145° |
| 2026-05-08 20:17 | 39.67565 | 19.14553 | 31005 ft | 550 kts | 145° |
| 2026-05-08 20:18 | 39.61574 | 19.20733 | 31007 ft | 549 kts | 145° |
| 2026-05-08 20:18 | 39.55589 | 19.26886 | 31015 ft | 550 kts | 145° |
| 2026-05-08 20:19 | 39.49585 | 19.33043 | 31014 ft | 549 kts | 145° |
| 2026-05-08 20:19 | 39.43575 | 19.39189 | 31016 ft | 549 kts | 145° |
| 2026-05-08 20:20 | 39.37581 | 19.45306 | 31019 ft | 550 kts | 145° |
| 2026-05-08 20:20 | 39.31566 | 19.51428 | 31023 ft | 549 kts | 145° |
| 2026-05-08 20:21 | 39.25529 | 19.57558 | 31021 ft | 549 kts | 146° |
| 2026-05-08 20:21 | 39.19553 | 19.63613 | 31029 ft | 549 kts | 145° |
| 2026-05-08 20:22 | 39.13557 | 19.69674 | 31014 ft | 549 kts | 146° |
| 2026-05-08 20:22 | 39.08517 | 19.74759 | 31015 ft | 549 kts | 146° |
| 2026-05-08 20:23 | 39.01502 | 19.81820 | 31015 ft | 548 kts | 146° |
| 2026-05-08 20:23 | 38.93547 | 19.89805 | 31013 ft | 549 kts | 146° |
| 2026-05-08 20:24 | 38.81571 | 20.01784 | 31011 ft | 547 kts | 146° |
| 2026-05-08 20:24 | 38.69665 | 20.13640 | 31022 ft | 547 kts | 146° |
| 2026-05-08 20:25 | 38.57777 | 20.25426 | 31032 ft | 546 kts | 147° |
| 2026-05-08 20:25 | 38.45754 | 20.37295 | 31043 ft | 548 kts | 147° |
| 2026-05-08 20:26 | 38.33780 | 20.49064 | 31063 ft | 545 kts | 146° |
| 2026-05-08 20:26 | 38.22023 | 20.60572 | 31081 ft | 542 kts | 146° |
| 2026-05-08 20:27 | 38.10232 | 20.72065 | 31055 ft | 541 kts | 147° |
| 2026-05-08 20:27 | 37.98260 | 20.83685 | 31053 ft | 541 kts | 147° |
| 2026-05-08 20:28 | 37.86404 | 20.95143 | 31052 ft | 542 kts | 147° |
| 2026-05-08 20:28 | 37.74494 | 21.06608 | 31058 ft | 540 kts | 147° |
| 2026-05-08 20:29 | 37.62572 | 21.18035 | 31065 ft | 540 kts | 147° |
| 2026-05-08 20:29 | 37.50590 | 21.29472 | 31068 ft | 540 kts | 147° |
| 2026-05-08 20:30 | 37.38674 | 21.40801 | 31072 ft | 538 kts | 147° |
| 2026-05-08 20:30 | 37.26795 | 21.52047 | 31078 ft | 539 kts | 147° |
| 2026-05-08 20:31 | 37.14811 | 21.63349 | 31093 ft | 538 kts | 147° |
| 2026-05-08 20:31 | 37.03003 | 21.74439 | 31096 ft | 537 kts | 148° |
| 2026-05-08 20:32 | 36.91297 | 21.85389 | 31090 ft | 536 kts | 147° |
| 2026-05-08 20:32 | 36.79473 | 21.96406 | 31087 ft | 535 kts | 148° |
| 2026-05-08 20:33 | 36.67559 | 22.07463 | 31090 ft | 532 kts | 147° |
| 2026-05-08 20:33 | 36.55696 | 22.18430 | 31089 ft | 531 kts | 147° |
| 2026-05-08 20:34 | 36.46054 | 22.27312 | 31088 ft | 530 kts | 147° |
| 2026-05-08 20:34 | 36.40083 | 22.32795 | 31535 ft | 537 kts | 147° |
| 2026-05-08 20:35 | 36.37100 | 22.35533 | 32376 ft | 529 kts | 147° |
| 2026-05-08 20:35 | 36.34146 | 22.38242 | 32999 ft | 527 kts | 147° |
| 2026-05-08 20:35 | 36.31176 | 22.40962 | 33083 ft | 527 kts | 147° |
| 2026-05-08 20:36 | 36.25307 | 22.46328 | 33091 ft | 522 kts | 147° |
| 2026-05-08 20:36 | 36.19457 | 22.51666 | 33092 ft | 522 kts | 147° |
| 2026-05-08 20:37 | 36.13643 | 22.56961 | 33094 ft | 521 kts | 147° |
| 2026-05-08 20:37 | 36.07760 | 22.62310 | 33094 ft | 520 kts | 146° |
| 2026-05-08 20:38 | 35.95702 | 22.73241 | 33086 ft | 518 kts | 147° |
| 2026-05-08 20:38 | 35.84118 | 22.83702 | 33092 ft | 520 kts | 147° |
| 2026-05-08 20:39 | 35.72446 | 22.94204 | 33087 ft | 522 kts | 147° |
| 2026-05-08 20:39 | 35.60753 | 23.04686 | 33085 ft | 522 kts | 148° |
| 2026-05-08 20:40 | 35.49024 | 23.15161 | 33087 ft | 524 kts | 148° |
| 2026-05-08 20:40 | 35.37221 | 23.25663 | 33085 ft | 523 kts | 148° |
| 2026-05-08 20:41 | 35.25451 | 23.36098 | 33086 ft | 523 kts | 149° |
| 2026-05-08 20:41 | 35.13699 | 23.46479 | 33093 ft | 524 kts | 149° |
| 2026-05-08 20:42 | 35.01860 | 23.56897 | 33105 ft | 525 kts | 149° |
| 2026-05-08 20:42 | 34.90005 | 23.67292 | 33093 ft | 527 kts | 149° |
| 2026-05-08 20:43 | 34.78128 | 23.77669 | 33110 ft | 527 kts | 149° |
| 2026-05-08 20:43 | 34.66263 | 23.87998 | 33111 ft | 525 kts | 149° |
| 2026-05-08 20:44 | 34.54370 | 23.98314 | 33118 ft | 528 kts | 149° |
| 2026-05-08 20:44 | 34.42481 | 24.08591 | 33118 ft | 527 kts | 149° |
| 2026-05-08 20:45 | 34.30502 | 24.18907 | 33121 ft | 528 kts | 149° |
| 2026-05-08 20:45 | 34.18586 | 24.29133 | 33125 ft | 528 kts | 149° |
| 2026-05-08 20:46 | 34.06643 | 24.39345 | 33130 ft | 529 kts | 149° |
| 2026-05-08 20:46 | 33.94931 | 24.50078 | 33142 ft | 533 kts | 141° |
| 2026-05-08 20:47 | 33.84026 | 24.62070 | 33136 ft | 531 kts | 141° |
| 2026-05-08 20:47 | 33.73006 | 24.73962 | 33134 ft | 533 kts | 142° |
| 2026-05-08 20:48 | 33.61983 | 24.85755 | 33133 ft | 534 kts | 142° |
| 2026-05-08 20:48 | 33.50843 | 24.97610 | 33135 ft | 535 kts | 143° |
| 2026-05-08 20:49 | 33.39751 | 25.09367 | 33141 ft | 533 kts | 142° |
| 2026-05-08 20:49 | 33.28647 | 25.21093 | 33140 ft | 534 kts | 143° |
| 2026-05-08 20:50 | 33.17530 | 25.32791 | 33141 ft | 533 kts | 142° |
| 2026-05-08 20:50 | 33.06438 | 25.44421 | 33149 ft | 533 kts | 143° |
| 2026-05-08 20:51 | 32.95266 | 25.56094 | 33156 ft | 532 kts | 142° |
| 2026-05-08 20:51 | 32.84196 | 25.67621 | 33143 ft | 530 kts | 143° |
| 2026-05-08 20:52 | 32.73118 | 25.79115 | 33145 ft | 529 kts | 142° |
| 2026-05-08 20:52 | 32.62099 | 25.90511 | 33157 ft | 529 kts | 143° |
| 2026-05-08 20:53 | 32.51004 | 26.01945 | 33155 ft | 529 kts | 142° |
| 2026-05-08 20:53 | 32.39889 | 26.13361 | 33157 ft | 528 kts | 142° |
| 2026-05-08 20:54 | 32.28809 | 26.24702 | 33162 ft | 530 kts | 142° |
| 2026-05-08 20:54 | 32.17644 | 26.36092 | 33162 ft | 528 kts | 142° |
| 2026-05-08 20:55 | 32.06544 | 26.47378 | 33164 ft | 528 kts | 142° |
| 2026-05-08 20:55 | 31.95403 | 26.58668 | 33163 ft | 529 kts | 141° |
| 2026-05-08 20:56 | 31.84310 | 26.69873 | 33150 ft | 527 kts | 142° |
| 2026-05-08 20:56 | 31.73257 | 26.81000 | 33156 ft | 526 kts | 142° |
| 2026-05-08 20:57 | 31.62157 | 26.92138 | 33153 ft | 526 kts | 142° |
| 2026-05-08 20:57 | 31.51031 | 27.03266 | 33155 ft | 526 kts | 142° |
| 2026-05-08 20:58 | 31.39888 | 27.14375 | 33162 ft | 526 kts | 142° |
| 2026-05-08 20:58 | 31.28052 | 27.24280 | 33170 ft | 519 kts | 158° |
| 2026-05-08 20:59 | 31.15060 | 27.31403 | 33168 ft | 519 kts | 158° |
| 2026-05-08 20:59 | 31.01924 | 27.38530 | 33165 ft | 519 kts | 158° |
| 2026-05-08 21:00 | 30.89351 | 27.46857 | 33173 ft | 527 kts | 143° |
| 2026-05-08 21:00 | 30.77888 | 27.57495 | 33169 ft | 527 kts | 143° |
| 2026-05-08 21:01 | 30.66504 | 27.68023 | 33152 ft | 528 kts | 144° |
| 2026-05-08 21:01 | 30.55034 | 27.78594 | 33150 ft | 528 kts | 144° |
| 2026-05-08 21:02 | 30.43480 | 27.89207 | 33144 ft | 529 kts | 144° |
| 2026-05-08 21:02 | 30.31972 | 27.99744 | 33132 ft | 530 kts | 144° |
| 2026-05-08 21:03 | 30.20482 | 28.10233 | 33123 ft | 529 kts | 144° |
| 2026-05-08 21:03 | 30.08956 | 28.20722 | 33120 ft | 530 kts | 143° |
| 2026-05-08 21:04 | 29.97353 | 28.31249 | 33113 ft | 530 kts | 143° |
| 2026-05-08 21:04 | 29.86044 | 28.41960 | 33126 ft | 531 kts | 133° |
| 2026-05-08 21:05 | 29.77037 | 28.55191 | 33122 ft | 532 kts | 127° |
| 2026-05-08 21:05 | 29.68091 | 28.68541 | 33115 ft | 531 kts | 128° |
| 2026-05-08 21:06 | 29.59072 | 28.81945 | 33116 ft | 531 kts | 128° |
| 2026-05-08 21:06 | 29.50119 | 28.95211 | 33112 ft | 530 kts | 128° |
| 2026-05-08 21:07 | 29.40824 | 29.08192 | 33107 ft | 528 kts | 139° |
| 2026-05-08 21:07 | 29.29205 | 29.18479 | 33110 ft | 527 kts | 143° |
| 2026-05-08 21:08 | 29.17505 | 29.28616 | 33113 ft | 527 kts | 143° |
| 2026-05-08 21:08 | 29.05861 | 29.38507 | 33103 ft | 525 kts | 144° |
| 2026-05-08 21:09 | 28.94049 | 29.48306 | 33096 ft | 525 kts | 144° |
| 2026-05-08 21:09 | 28.82270 | 29.58063 | 33083 ft | 524 kts | 144° |
| 2026-05-08 21:10 | 28.70557 | 29.67742 | 33065 ft | 522 kts | 145° |
| 2026-05-08 21:10 | 28.58802 | 29.77430 | 33053 ft | 523 kts | 144° |
| 2026-05-08 21:11 | 28.47047 | 29.87090 | 33051 ft | 522 kts | 144° |
| 2026-05-08 21:11 | 28.35334 | 29.96690 | 33044 ft | 522 kts | 144° |
| 2026-05-08 21:12 | 28.23627 | 30.06258 | 33046 ft | 521 kts | 144° |
| 2026-05-08 21:12 | 28.11870 | 30.15840 | 33038 ft | 521 kts | 144° |
| 2026-05-08 21:13 | 28.00168 | 30.25352 | 33024 ft | 521 kts | 144° |
| 2026-05-08 21:13 | 27.88364 | 30.34920 | 33017 ft | 521 kts | 144° |
| 2026-05-08 21:14 | 27.76602 | 30.44428 | 33016 ft | 521 kts | 144° |
| 2026-05-08 21:14 | 27.64881 | 30.53877 | 33013 ft | 521 kts | 144° |
| 2026-05-08 21:15 | 27.53207 | 30.63264 | 33001 ft | 520 kts | 144° |
| 2026-05-08 21:15 | 27.41566 | 30.72598 | 32995 ft | 519 kts | 144° |
| 2026-05-08 21:16 | 27.29850 | 30.81968 | 33003 ft | 517 kts | 144° |
| 2026-05-08 21:16 | 27.18379 | 30.91118 | 33006 ft | 515 kts | 144° |
| 2026-05-08 21:17 | 27.06678 | 31.00428 | 33018 ft | 513 kts | 144° |
| 2026-05-08 21:17 | 27.01354 | 31.05680 | 33023 ft | 513 kts | 130° |
| 2026-05-08 21:17 | 26.96810 | 31.11907 | 33014 ft | 513 kts | 128° |
| 2026-05-08 21:18 | 26.87910 | 31.24198 | 32996 ft | 514 kts | 128° |
| 2026-05-08 21:18 | 26.78906 | 31.36570 | 32995 ft | 515 kts | 128° |
| 2026-05-08 21:19 | 26.69962 | 31.48817 | 32968 ft | 517 kts | 128° |
| 2026-05-08 21:19 | 26.60927 | 31.61153 | 32973 ft | 518 kts | 128° |
| 2026-05-08 21:20 | 26.51832 | 31.73534 | 32940 ft | 519 kts | 129° |
| 2026-05-08 21:20 | 26.42728 | 31.85894 | 32942 ft | 520 kts | 129° |
| 2026-05-08 21:21 | 26.33525 | 31.98355 | 32936 ft | 519 kts | 129° |
| 2026-05-08 21:21 | 26.24401 | 32.10674 | 32929 ft | 520 kts | 129° |
| 2026-05-08 21:22 | 26.15196 | 32.23068 | 32939 ft | 521 kts | 129° |
| 2026-05-08 21:22 | 26.05974 | 32.35451 | 32920 ft | 521 kts | 129° |
| 2026-05-08 21:23 | 25.96749 | 32.47805 | 32909 ft | 521 kts | 129° |
| 2026-05-08 21:23 | 25.87471 | 32.60197 | 32900 ft | 523 kts | 129° |
| 2026-05-08 21:24 | 25.78339 | 32.72361 | 32892 ft | 522 kts | 129° |
| 2026-05-08 21:24 | 25.69877 | 32.85332 | 32899 ft | 523 kts | 122° |
| 2026-05-08 21:25 | 25.64880 | 32.93729 | 32911 ft | 522 kts | 122° |
| 2026-05-08 21:25 | 25.60854 | 33.00472 | 32917 ft | 522 kts | 122° |
| 2026-05-08 21:26 | 25.56823 | 33.07211 | 32923 ft | 522 kts | 122° |
| 2026-05-08 21:26 | 25.52799 | 33.13925 | 32925 ft | 523 kts | 122° |
| 2026-05-08 21:27 | 25.48800 | 33.20588 | 32925 ft | 522 kts | 122° |
| 2026-05-08 21:27 | 25.44758 | 33.27310 | 32921 ft | 520 kts | 122° |
| 2026-05-08 21:28 | 25.40812 | 33.33861 | 32926 ft | 503 kts | 122° |
| 2026-05-08 21:28 | 25.36979 | 33.40218 | 32927 ft | 500 kts | 122° |
| 2026-05-08 21:29 | 25.33055 | 33.46719 | 32932 ft | 506 kts | 122° |
| 2026-05-08 21:29 | 25.29127 | 33.53215 | 32933 ft | 505 kts | 122° |
| 2026-05-08 21:30 | 25.25223 | 33.59667 | 32940 ft | 502 kts | 122° |
| 2026-05-08 21:30 | 25.21381 | 33.66007 | 32941 ft | 494 kts | 122° |
| 2026-05-08 21:31 | 25.17562 | 33.72300 | 32944 ft | 493 kts | 122° |
| 2026-05-08 21:31 | 25.13748 | 33.78579 | 32948 ft | 494 kts | 122° |
| 2026-05-08 21:32 | 25.09901 | 33.84902 | 32955 ft | 494 kts | 122° |
| 2026-05-08 21:32 | 25.06094 | 33.91151 | 32962 ft | 495 kts | 122° |
| 2026-05-08 21:33 | 25.02212 | 33.97517 | 32965 ft | 501 kts | 122° |
| 2026-05-08 21:33 | 24.98321 | 34.03886 | 32971 ft | 500 kts | 122° |
| 2026-05-08 21:34 | 24.94438 | 34.10235 | 32967 ft | 499 kts | 122° |
| 2026-05-08 21:34 | 24.90542 | 34.16596 | 32971 ft | 500 kts | 122° |
| 2026-05-08 21:35 | 24.86650 | 34.22944 | 32964 ft | 499 kts | 122° |
| 2026-05-08 21:35 | 24.82780 | 34.29245 | 32968 ft | 499 kts | 122° |
| 2026-05-08 21:36 | 24.78885 | 34.35580 | 32968 ft | 497 kts | 122° |
| 2026-05-08 21:36 | 24.75016 | 34.41865 | 32973 ft | 497 kts | 122° |
| 2026-05-08 21:37 | 24.71142 | 34.48149 | 32975 ft | 497 kts | 122° |
| 2026-05-08 21:37 | 24.67259 | 34.54440 | 32972 ft | 498 kts | 122° |
| 2026-05-08 21:38 | 24.63353 | 34.60759 | 32965 ft | 497 kts | 122° |
| 2026-05-08 21:38 | 24.59487 | 34.67006 | 32959 ft | 497 kts | 122° |
| 2026-05-08 21:39 | 24.55605 | 34.73272 | 32957 ft | 496 kts | 122° |
| 2026-05-08 21:39 | 24.51716 | 34.79540 | 32952 ft | 497 kts | 122° |
| 2026-05-08 21:40 | 24.47824 | 34.85805 | 32946 ft | 496 kts | 122° |
| 2026-05-08 21:40 | 24.43912 | 34.92094 | 32953 ft | 497 kts | 123° |
| 2026-05-08 21:41 | 24.38088 | 35.01442 | 32969 ft | 496 kts | 123° |
| 2026-05-08 21:41 | 24.34197 | 35.07677 | 32965 ft | 497 kts | 123° |
| 2026-05-08 21:42 | 24.30309 | 35.13898 | 32954 ft | 496 kts | 123° |
| 2026-05-08 21:42 | 24.26397 | 35.20152 | 32940 ft | 496 kts | 123° |
| 2026-05-08 21:43 | 24.22490 | 35.26389 | 32916 ft | 497 kts | 123° |
| 2026-05-08 21:43 | 24.18596 | 35.32597 | 32905 ft | 496 kts | 122° |
| 2026-05-08 21:44 | 24.14676 | 35.38839 | 32901 ft | 494 kts | 122° |
| 2026-05-08 21:44 | 24.10757 | 35.45072 | 32899 ft | 497 kts | 122° |
| 2026-05-08 21:45 | 24.06856 | 35.51268 | 32895 ft | 495 kts | 122° |
| 2026-05-08 21:45 | 24.02943 | 35.57477 | 32891 ft | 493 kts | 123° |
| 2026-05-08 21:46 | 23.99042 | 35.63657 | 32888 ft | 495 kts | 122° |
| 2026-05-08 21:46 | 23.95095 | 35.69906 | 32882 ft | 507 kts | 123° |
| 2026-05-08 21:47 | 23.91006 | 35.76364 | 32876 ft | 518 kts | 123° |
| 2026-05-08 21:47 | 23.86915 | 35.82813 | 32871 ft | 517 kts | 123° |
| 2026-05-08 21:48 | 23.82832 | 35.89244 | 32871 ft | 517 kts | 123° |
| 2026-05-08 21:48 | 23.78723 | 35.95705 | 32874 ft | 516 kts | 123° |
| 2026-05-08 21:49 | 23.74651 | 36.02101 | 32871 ft | 517 kts | 123° |
| 2026-05-08 21:49 | 23.70424 | 36.08733 | 32871 ft | 517 kts | 123° |
| 2026-05-08 21:50 | 23.62225 | 36.21571 | 32870 ft | 519 kts | 123° |
| 2026-05-08 21:50 | 23.53974 | 36.34457 | 32874 ft | 520 kts | 123° |
| 2026-05-08 21:51 | 23.45736 | 36.47289 | 32867 ft | 521 kts | 123° |
| 2026-05-08 21:51 | 23.37406 | 36.60232 | 32862 ft | 522 kts | 123° |
| 2026-05-08 21:52 | 23.29134 | 36.73050 | 32860 ft | 523 kts | 124° |
| 2026-05-08 21:52 | 23.20750 | 36.86012 | 32857 ft | 524 kts | 124° |
| 2026-05-08 21:53 | 23.12392 | 36.98901 | 32853 ft | 526 kts | 124° |
| 2026-05-08 21:53 | 23.04023 | 37.11773 | 32848 ft | 526 kts | 124° |
| 2026-05-08 21:54 | 22.95528 | 37.24766 | 32843 ft | 527 kts | 124° |
| 2026-05-08 21:54 | 22.87095 | 37.37613 | 32844 ft | 527 kts | 124° |
| 2026-05-08 21:55 | 22.78628 | 37.50483 | 32832 ft | 527 kts | 124° |
| 2026-05-08 21:56 | 22.65937 | 37.69771 | 32830 ft | 528 kts | 125° |
| 2026-05-08 21:56 | 22.57521 | 37.82603 | 32832 ft | 528 kts | 126° |
| 2026-05-08 21:57 | 22.49001 | 37.95556 | 32828 ft | 527 kts | 126° |
| 2026-05-08 21:57 | 22.40481 | 38.08477 | 32822 ft | 525 kts | 126° |
| 2026-05-08 21:58 | 22.32054 | 38.21225 | 32829 ft | 524 kts | 127° |
| 2026-05-08 21:58 | 22.23614 | 38.33961 | 32821 ft | 523 kts | 127° |
| 2026-05-08 21:59 | 22.15170 | 38.46672 | 32829 ft | 521 kts | 128° |
| 2026-05-08 21:59 | 22.06811 | 38.59226 | 32832 ft | 520 kts | 128° |
| 2026-05-08 22:00 | 21.98435 | 38.71775 | 32823 ft | 516 kts | 129° |
| 2026-05-08 22:00 | 21.90221 | 38.84053 | 32820 ft | 511 kts | 129° |
| 2026-05-08 22:01 | 21.82003 | 38.96309 | 32831 ft | 512 kts | 129° |
| 2026-05-08 22:01 | 21.77178 | 39.03144 | 32824 ft | 502 kts | 138° |
| 2026-05-08 22:02 | 21.71831 | 39.07869 | 32813 ft | 491 kts | 154° |
| 2026-05-08 22:02 | 21.65708 | 39.10820 | 32831 ft | 477 kts | 168° |
| 2026-05-08 22:03 | 21.59177 | 39.11965 | 32831 ft | 470 kts | 182° |
| 2026-05-08 22:03 | 21.52646 | 39.11860 | 32826 ft | 466 kts | 185° |
| 2026-05-08 22:04 | 21.46104 | 39.11686 | 32828 ft | 469 kts | 185° |
| 2026-05-08 22:04 | 21.39630 | 39.11519 | 32837 ft | 465 kts | 185° |
| 2026-05-08 22:05 | 21.28780 | 39.11240 | 32818 ft | 463 kts | 185° |
| 2026-05-08 22:05 | 21.03726 | 39.10603 | 32821 ft | 460 kts | 185° |
| 2026-05-08 22:06 | 20.78580 | 39.09966 | 32819 ft | 458 kts | 185° |
| 2026-05-08 22:06 | 20.53141 | 39.09324 | 32817 ft | 457 kts | 186° |
| 2026-05-08 22:07 | 20.27780 | 39.08686 | 32814 ft | 457 kts | 186° |
| 2026-05-08 22:07 | 20.02587 | 39.08055 | 32805 ft | 454 kts | 186° |
| 2026-05-08 22:08 | 19.77837 | 39.07438 | 32811 ft | 451 kts | 186° |
| 2026-05-08 22:08 | 19.52762 | 39.06814 | 32807 ft | 450 kts | 186° |
| 2026-05-08 22:09 | 19.27866 | 39.06196 | 32816 ft | 450 kts | 186° |
| 2026-05-08 22:09 | 19.03018 | 39.05307 | 32817 ft | 447 kts | 187° |
| 2026-05-08 22:10 | 18.78302 | 39.03913 | 32823 ft | 447 kts | 187° |
| 2026-05-08 22:10 | 18.53421 | 39.02532 | 32817 ft | 448 kts | 187° |
| 2026-05-08 22:11 | 18.28629 | 39.01162 | 32813 ft | 452 kts | 186° |
| 2026-05-08 22:11 | 18.03574 | 39.00024 | 32803 ft | 454 kts | 185° |
| 2026-05-08 22:12 | 17.78920 | 38.99145 | 32814 ft | 453 kts | 185° |
| 2026-05-08 22:12 | 17.53908 | 38.98248 | 32812 ft | 453 kts | 185° |
| 2026-05-08 22:13 | 17.28625 | 38.97332 | 32807 ft | 453 kts | 185° |
| 2026-05-08 22:13 | 17.03511 | 38.96415 | 32805 ft | 453 kts | 185° |
| 2026-05-08 22:14 | 16.79134 | 38.95528 | 32833 ft | 456 kts | 185° |
| 2026-05-08 22:14 | 16.54016 | 38.94616 | 32861 ft | 457 kts | 184° |
| 2026-05-08 22:15 | 16.28611 | 38.93696 | 32894 ft | 458 kts | 184° |
| 2026-05-08 22:15 | 16.03278 | 38.92781 | 32936 ft | 460 kts | 184° |
| 2026-05-08 22:16 | 15.78531 | 38.91890 | 32993 ft | 459 kts | 184° |
| 2026-05-08 22:16 | 15.53071 | 38.90975 | 33193 ft | 464 kts | 184° |
| 2026-05-08 22:17 | 15.28686 | 38.90101 | 33286 ft | 465 kts | 183° |
| 2026-05-08 22:17 | 15.03195 | 38.90060 | 33315 ft | 467 kts | 181° |
| 2026-05-08 22:18 | 14.77990 | 38.90040 | 33307 ft | 467 kts | 181° |
| 2026-05-08 22:18 | 14.52165 | 38.90579 | 33281 ft | 472 kts | 168° |
| 2026-05-08 22:18 | 14.40695 | 38.97003 | 33295 ft | 484 kts | 147° |
| 2026-05-08 22:19 | 14.30028 | 39.04949 | 33345 ft | 483 kts | 147° |
| 2026-05-08 22:19 | 14.09078 | 39.20561 | 33323 ft | 485 kts | 147° |
| 2026-05-08 22:20 | 13.87638 | 39.36509 | 33296 ft | 484 kts | 147° |
| 2026-05-08 22:20 | 13.66929 | 39.51878 | 33281 ft | 485 kts | 147° |
| 2026-05-08 22:21 | 13.45796 | 39.67527 | 33280 ft | 486 kts | 147° |
| 2026-05-08 22:21 | 13.24106 | 39.83553 | 33186 ft | 485 kts | 147° |
| 2026-05-08 22:22 | 13.02481 | 39.99493 | 33126 ft | 485 kts | 147° |
| 2026-05-08 22:22 | 12.81008 | 40.15288 | 33036 ft | 487 kts | 147° |
| 2026-05-08 22:23 | 12.67859 | 40.24943 | 32955 ft | 488 kts | 147° |
| 2026-05-08 22:23 | 12.62311 | 40.29013 | 33164 ft | 496 kts | 147° |
| 2026-05-08 22:23 | 12.59527 | 40.31054 | 33823 ft | 494 kts | 147° |
| 2026-05-08 22:24 | 12.56734 | 40.33103 | 34632 ft | 489 kts | 147° |
| 2026-05-08 22:24 | 12.53999 | 40.35108 | 34932 ft | 490 kts | 147° |
| 2026-05-08 22:24 | 12.51206 | 40.37155 | 34933 ft | 488 kts | 147° |
| 2026-05-08 22:25 | 12.45540 | 40.41203 | 34931 ft | 484 kts | 152° |
| 2026-05-08 22:25 | 12.39568 | 40.44379 | 34944 ft | 482 kts | 156° |
| 2026-05-08 22:26 | 12.33531 | 40.47482 | 34946 ft | 484 kts | 155° |
| 2026-05-08 22:26 | 12.27501 | 40.50581 | 34962 ft | 483 kts | 156° |
| 2026-05-08 22:27 | 12.21479 | 40.53674 | 34962 ft | 484 kts | 155° |
| 2026-05-08 22:27 | 12.15465 | 40.56763 | 34958 ft | 484 kts | 155° |
| 2026-05-08 22:28 | 11.98006 | 40.65722 | 34941 ft | 485 kts | 155° |
| 2026-05-08 22:28 | 11.75453 | 40.77275 | 34972 ft | 484 kts | 155° |
| 2026-05-08 22:29 | 11.51909 | 40.89314 | 34919 ft | 485 kts | 155° |
| 2026-05-08 22:29 | 11.28773 | 41.01121 | 34884 ft | 484 kts | 155° |
| 2026-05-08 22:30 | 11.05216 | 41.13123 | 34905 ft | 484 kts | 155° |
| 2026-05-08 22:30 | 10.82092 | 41.24890 | 34884 ft | 484 kts | 154° |
| 2026-05-08 22:31 | 10.58512 | 41.36852 | 34918 ft | 484 kts | 154° |
| 2026-05-08 22:31 | 10.35724 | 41.48400 | 34947 ft | 485 kts | 154° |
| 2026-05-08 22:32 | 10.12111 | 41.60347 | 34950 ft | 486 kts | 154° |
| 2026-05-08 22:32 | 9.89105 | 41.71967 | 34999 ft | 486 kts | 154° |
| 2026-05-08 22:33 | 9.65704 | 41.83769 | 35108 ft | 485 kts | 154° |
| 2026-05-08 22:33 | 9.53672 | 41.89386 | 35216 ft | 485 kts | 156° |
| 2026-05-08 22:33 | 9.41471 | 41.94967 | 35275 ft | 486 kts | 156° |
| 2026-05-08 22:34 | 9.17139 | 42.06116 | 35238 ft | 486 kts | 155° |
| 2026-05-08 22:34 | 8.92670 | 42.17319 | 35200 ft | 485 kts | 155° |
| 2026-05-08 22:35 | 8.68720 | 42.28270 | 35171 ft | 485 kts | 155° |
| 2026-05-08 22:35 | 8.44483 | 42.39335 | 35129 ft | 485 kts | 155° |
| 2026-05-08 22:36 | 8.20389 | 42.50346 | 35121 ft | 485 kts | 155° |
| 2026-05-08 22:36 | 7.96220 | 42.61395 | 35030 ft | 484 kts | 155° |
| 2026-05-08 22:37 | 7.72671 | 42.72145 | 34995 ft | 484 kts | 155° |
| 2026-05-08 22:37 | 7.48552 | 42.83143 | 35004 ft | 484 kts | 155° |
| 2026-05-08 22:38 | 7.24397 | 42.94142 | 35001 ft | 483 kts | 155° |
| 2026-05-08 22:38 | 7.00395 | 43.05060 | 34957 ft | 484 kts | 155° |
| 2026-05-08 22:39 | 6.76950 | 43.15754 | 34946 ft | 482 kts | 155° |
| 2026-05-08 22:39 | 6.53049 | 43.26653 | 34915 ft | 482 kts | 155° |
| 2026-05-08 22:40 | 6.28989 | 43.37613 | 34903 ft | 482 kts | 155° |
| 2026-05-08 22:40 | 6.05079 | 43.48494 | 34891 ft | 481 kts | 155° |
| 2026-05-08 22:41 | 5.81712 | 43.59116 | 34905 ft | 482 kts | 155° |
| 2026-05-08 22:41 | 5.58258 | 43.69783 | 34932 ft | 481 kts | 155° |
| 2026-05-08 22:42 | 5.34190 | 43.80745 | 34940 ft | 480 kts | 155° |
| 2026-05-08 22:42 | 5.11197 | 43.91208 | 34929 ft | 481 kts | 155° |
| 2026-05-08 22:43 | 4.87958 | 44.01750 | 34954 ft | 480 kts | 155° |
| 2026-05-08 22:43 | 4.64608 | 44.12147 | 34976 ft | 481 kts | 155° |
| 2026-05-08 22:44 | 4.41040 | 44.22643 | 34979 ft | 481 kts | 155° |
| 2026-05-08 22:44 | 4.18229 | 44.32795 | 34972 ft | 483 kts | 155° |
| 2026-05-08 22:45 | 3.95842 | 44.42752 | 34973 ft | 484 kts | 155° |
| 2026-05-08 22:45 | 3.73589 | 44.52644 | 34970 ft | 485 kts | 155° |
| 2026-05-08 22:46 | 3.51305 | 44.62543 | 34958 ft | 487 kts | 155° |
| 2026-05-08 22:46 | 3.28295 | 44.72760 | 34947 ft | 490 kts | 155° |
| 2026-05-08 22:47 | 3.05246 | 44.82989 | 34937 ft | 492 kts | 155° |
| 2026-05-08 22:47 | 2.81631 | 44.93464 | 34923 ft | 492 kts | 155° |
| 2026-05-08 22:48 | 2.57673 | 45.04087 | 34922 ft | 492 kts | 155° |
| 2026-05-08 22:48 | 2.34066 | 45.14550 | 34922 ft | 490 kts | 155° |
| 2026-05-08 22:49 | 2.10784 | 45.24865 | 34915 ft | 490 kts | 155° |
| 2026-05-08 22:49 | 1.74244 | 45.40702 | 34898 ft | 489 kts | 156° |
| 2026-05-08 22:50 | 1.49610 | 45.51282 | 34892 ft | 489 kts | 156° |
| 2026-05-08 22:50 | 1.24909 | 45.61891 | 34890 ft | 489 kts | 156° |
| 2026-05-08 22:51 | 1.00388 | 45.72420 | 34890 ft | 488 kts | 156° |
| 2026-05-08 22:51 | 0.75534 | 45.83091 | 34889 ft | 489 kts | 156° |
| 2026-05-08 22:52 | 0.50853 | 45.93716 | 34890 ft | 488 kts | 156° |
| 2026-05-08 22:52 | 0.26250 | 46.04497 | 34890 ft | 489 kts | 156° |
| 2026-05-08 22:53 | 0.01409 | 46.15374 | 34889 ft | 489 kts | 156° |
| 2026-05-08 22:53 | -0.23099 | 46.26069 | 34889 ft | 489 kts | 156° |
| 2026-05-08 22:54 | -0.47914 | 46.36642 | 34889 ft | 488 kts | 156° |
| 2026-05-08 22:54 | -0.72612 | 46.47176 | 34888 ft | 489 kts | 156° |
| 2026-05-08 22:55 | -0.97407 | 46.57754 | 34888 ft | 489 kts | 156° |
| 2026-05-08 22:55 | -1.22391 | 46.68415 | 34889 ft | 489 kts | 156° |
| 2026-05-08 22:56 | -1.47268 | 46.79033 | 34889 ft | 489 kts | 156° |
| 2026-05-08 22:56 | -1.71924 | 46.89558 | 34889 ft | 488 kts | 156° |
| 2026-05-08 22:57 | -1.96541 | 47.00070 | 34888 ft | 488 kts | 156° |
| 2026-05-08 22:57 | -2.21373 | 47.10677 | 34888 ft | 489 kts | 156° |
| 2026-05-08 22:58 | -2.46252 | 47.21308 | 34894 ft | 489 kts | 156° |
| 2026-05-08 22:58 | -2.71119 | 47.31938 | 34896 ft | 489 kts | 156° |
| 2026-05-08 22:59 | -2.95559 | 47.42390 | 34898 ft | 490 kts | 156° |
| 2026-05-08 22:59 | -3.20362 | 47.53003 | 34902 ft | 490 kts | 156° |
| 2026-05-08 23:00 | -3.45219 | 47.63645 | 34903 ft | 491 kts | 156° |
| 2026-05-08 23:00 | -3.69955 | 47.74240 | 34904 ft | 491 kts | 156° |
| 2026-05-08 23:01 | -3.94686 | 47.84840 | 34909 ft | 492 kts | 156° |
| 2026-05-08 23:01 | -4.19686 | 47.95563 | 34907 ft | 492 kts | 156° |
| 2026-05-08 23:02 | -4.44226 | 48.06076 | 34908 ft | 492 kts | 156° |
| 2026-05-08 23:02 | -4.69322 | 48.16833 | 34909 ft | 492 kts | 156° |
| 2026-05-08 23:03 | -4.94053 | 48.27443 | 34909 ft | 492 kts | 156° |
| 2026-05-08 23:03 | -5.18809 | 48.38071 | 34908 ft | 493 kts | 156° |
| 2026-05-08 23:04 | -5.43949 | 48.48874 | 34908 ft | 493 kts | 155° |
| 2026-05-08 23:04 | -5.68874 | 48.59595 | 34909 ft | 493 kts | 155° |
| 2026-05-08 23:05 | -5.93560 | 48.70222 | 34910 ft | 493 kts | 155° |
| 2026-05-08 23:05 | -5.99908 | 48.72956 | 34911 ft | 493 kts | 155° |
| 2026-05-08 23:06 | -6.06261 | 48.75694 | 34911 ft | 494 kts | 155° |
| 2026-05-08 23:06 | -6.12584 | 48.78419 | 34909 ft | 494 kts | 155° |
| 2026-05-08 23:07 | -6.18974 | 48.81174 | 34909 ft | 493 kts | 155° |
| 2026-05-08 23:07 | -6.25302 | 48.83902 | 34909 ft | 494 kts | 155° |
| 2026-05-08 23:08 | -6.31705 | 48.86664 | 34909 ft | 494 kts | 155° |
| 2026-05-08 23:08 | -6.38088 | 48.89418 | 34909 ft | 494 kts | 155° |
| 2026-05-08 23:09 | -6.44442 | 48.92160 | 34909 ft | 494 kts | 155° |
| 2026-05-08 23:09 | -6.50836 | 48.94920 | 34909 ft | 494 kts | 155° |
| 2026-05-08 23:10 | -6.57212 | 48.97673 | 34909 ft | 494 kts | 155° |
| 2026-05-08 23:10 | -6.63549 | 49.00411 | 34909 ft | 494 kts | 155° |
| 2026-05-08 23:11 | -6.69874 | 49.03143 | 34909 ft | 494 kts | 155° |
| 2026-05-08 23:11 | -6.76222 | 49.05887 | 34910 ft | 494 kts | 155° |
| 2026-05-08 23:12 | -6.82566 | 49.08629 | 35119 ft | 502 kts | 155° |
| 2026-05-08 23:12 | -6.85813 | 49.10033 | 35854 ft | 498 kts | 155° |
| 2026-05-08 23:12 | -6.88960 | 49.11394 | 36705 ft | 493 kts | 155° |
| 2026-05-08 23:13 | -6.92117 | 49.12760 | 36905 ft | 495 kts | 155° |
| 2026-05-08 23:13 | -6.95315 | 49.14143 | 36910 ft | 492 kts | 155° |
| 2026-05-08 23:13 | -7.01623 | 49.16872 | 36910 ft | 491 kts | 155° |
| 2026-05-08 23:14 | -7.07902 | 49.19588 | 36910 ft | 491 kts | 155° |
| 2026-05-08 23:14 | -7.14222 | 49.22324 | 36908 ft | 491 kts | 155° |
| 2026-05-08 23:15 | -7.20488 | 49.25037 | 36908 ft | 491 kts | 155° |
| 2026-05-08 23:15 | -7.26778 | 49.27761 | 36908 ft | 491 kts | 155° |
| 2026-05-08 23:16 | -7.33078 | 49.30491 | 36908 ft | 491 kts | 155° |
| 2026-05-08 23:16 | -7.39370 | 49.33218 | 36908 ft | 491 kts | 155° |
| 2026-05-08 23:17 | -7.45623 | 49.35929 | 36908 ft | 491 kts | 155° |
| 2026-05-08 23:17 | -7.51921 | 49.38660 | 36908 ft | 491 kts | 155° |
| 2026-05-08 23:18 | -7.58226 | 49.41396 | 36908 ft | 491 kts | 155° |
| 2026-05-08 23:18 | -7.64501 | 49.44118 | 36908 ft | 491 kts | 155° |
| 2026-05-08 23:19 | -7.70776 | 49.46842 | 36908 ft | 491 kts | 155° |
| 2026-05-08 23:19 | -7.77090 | 49.49584 | 36908 ft | 491 kts | 155° |
| 2026-05-08 23:20 | -7.83342 | 49.52300 | 36908 ft | 491 kts | 155° |
| 2026-05-08 23:20 | -7.89626 | 49.55030 | 36909 ft | 491 kts | 155° |
| 2026-05-08 23:21 | -7.95916 | 49.57764 | 36908 ft | 491 kts | 155° |
| 2026-05-08 23:21 | -8.02248 | 49.60518 | 36909 ft | 491 kts | 155° |
| 2026-05-08 23:22 | -8.08563 | 49.63264 | 36909 ft | 491 kts | 155° |
| 2026-05-08 23:22 | -8.14812 | 49.65983 | 36910 ft | 491 kts | 155° |
| 2026-05-08 23:23 | -8.21119 | 49.68728 | 36909 ft | 491 kts | 155° |
| 2026-05-08 23:23 | -8.27434 | 49.71478 | 36909 ft | 491 kts | 155° |
| 2026-05-08 23:24 | -8.33721 | 49.74216 | 36910 ft | 491 kts | 155° |
| 2026-05-08 23:24 | -8.40040 | 49.76969 | 36910 ft | 491 kts | 155° |
| 2026-05-08 23:25 | -8.46312 | 49.79703 | 36910 ft | 491 kts | 155° |
| 2026-05-08 23:25 | -8.52612 | 49.82450 | 36910 ft | 491 kts | 155° |
| 2026-05-08 23:26 | -8.58943 | 49.85212 | 36910 ft | 491 kts | 155° |
| 2026-05-08 23:26 | -8.65243 | 49.87960 | 36910 ft | 491 kts | 155° |
| 2026-05-08 23:27 | -8.71507 | 49.90694 | 36910 ft | 491 kts | 155° |
| 2026-05-08 23:27 | -8.77771 | 49.93430 | 36910 ft | 491 kts | 155° |
| 2026-05-08 23:28 | -8.84072 | 49.96182 | 36909 ft | 491 kts | 155° |
| 2026-05-08 23:28 | -8.90369 | 49.98933 | 36910 ft | 491 kts | 155° |
| 2026-05-08 23:29 | -8.96664 | 50.01685 | 36910 ft | 491 kts | 155° |
| 2026-05-08 23:29 | -9.02949 | 50.04433 | 36911 ft | 491 kts | 155° |
| 2026-05-08 23:30 | -9.09227 | 50.07180 | 36909 ft | 491 kts | 155° |
| 2026-05-08 23:30 | -9.15545 | 50.09945 | 36907 ft | 491 kts | 155° |
| 2026-05-08 23:31 | -9.21818 | 50.12691 | 36908 ft | 491 kts | 155° |
| 2026-05-08 23:31 | -9.28095 | 50.15441 | 36908 ft | 491 kts | 155° |
| 2026-05-08 23:32 | -9.34364 | 50.18188 | 36908 ft | 491 kts | 154° |
| 2026-05-08 23:32 | -9.40622 | 50.20931 | 36909 ft | 491 kts | 154° |
| 2026-05-08 23:33 | -9.46908 | 50.23687 | 36908 ft | 491 kts | 154° |
| 2026-05-08 23:33 | -9.53241 | 50.26465 | 36910 ft | 490 kts | 154° |
| 2026-05-08 23:34 | -9.59516 | 50.29219 | 36909 ft | 490 kts | 154° |
| 2026-05-08 23:34 | -9.82728 | 50.39415 | 36909 ft | 490 kts | 154° |
| 2026-05-08 23:35 | -10.07515 | 50.50318 | 36907 ft | 490 kts | 154° |
| 2026-05-08 23:35 | -10.31926 | 50.61068 | 36905 ft | 490 kts | 154° |
| 2026-05-08 23:36 | -10.56621 | 50.71961 | 36910 ft | 489 kts | 154° |
| 2026-05-08 23:36 | -10.80990 | 50.82729 | 36910 ft | 488 kts | 154° |
| 2026-05-08 23:37 | -11.05372 | 50.93523 | 36910 ft | 487 kts | 154° |
| 2026-05-08 23:37 | -11.29629 | 51.04281 | 36909 ft | 488 kts | 154° |
| 2026-05-08 23:38 | -11.54406 | 51.15289 | 36909 ft | 488 kts | 154° |
| 2026-05-08 23:38 | -11.79005 | 51.26240 | 36908 ft | 488 kts | 154° |
| 2026-05-08 23:39 | -12.03616 | 51.37218 | 36908 ft | 489 kts | 154° |
| 2026-05-08 23:39 | -12.28092 | 51.48159 | 36907 ft | 489 kts | 154° |
| 2026-05-08 23:40 | -12.52823 | 51.59238 | 36907 ft | 489 kts | 154° |
| 2026-05-08 23:40 | -12.77543 | 51.70335 | 36911 ft | 490 kts | 154° |
| 2026-05-08 23:41 | -13.02244 | 51.81448 | 36911 ft | 491 kts | 154° |
| 2026-05-08 23:41 | -13.26890 | 51.92559 | 36908 ft | 491 kts | 154° |
| 2026-05-08 23:42 | -13.51830 | 52.03829 | 36908 ft | 491 kts | 154° |
| 2026-05-08 23:42 | -13.76661 | 52.15075 | 36910 ft | 490 kts | 154° |
| 2026-05-08 23:43 | -14.01563 | 52.26379 | 36909 ft | 490 kts | 154° |
| 2026-05-08 23:43 | -14.26135 | 52.37561 | 36906 ft | 490 kts | 154° |
| 2026-05-08 23:44 | -14.42806 | 52.45162 | 36907 ft | 490 kts | 154° |
| 2026-05-08 23:44 | -14.49037 | 52.48006 | 36907 ft | 490 kts | 154° |
| 2026-05-08 23:45 | -14.55302 | 52.50868 | 36907 ft | 490 kts | 154° |
| 2026-05-08 23:45 | -14.61527 | 52.53713 | 36906 ft | 489 kts | 154° |
| 2026-05-08 23:46 | -14.67747 | 52.56558 | 36908 ft | 489 kts | 154° |
| 2026-05-08 23:46 | -14.74010 | 52.59423 | 36908 ft | 489 kts | 154° |
| 2026-05-08 23:47 | -14.80272 | 52.62290 | 36907 ft | 490 kts | 154° |
| 2026-05-08 23:47 | -14.86522 | 52.65154 | 36908 ft | 489 kts | 154° |
| 2026-05-08 23:48 | -14.92756 | 52.68012 | 36911 ft | 489 kts | 154° |
| 2026-05-08 23:48 | -14.98995 | 52.70874 | 36911 ft | 489 kts | 154° |
| 2026-05-08 23:49 | -15.05235 | 52.73739 | 36911 ft | 489 kts | 154° |
| 2026-05-08 23:49 | -15.11484 | 52.76609 | 36909 ft | 489 kts | 154° |
| 2026-05-08 23:50 | -15.17736 | 52.79483 | 36909 ft | 489 kts | 154° |
| 2026-05-08 23:50 | -15.23934 | 52.82334 | 36909 ft | 489 kts | 154° |
| 2026-05-08 23:51 | -15.30176 | 52.85207 | 36909 ft | 489 kts | 154° |
| 2026-05-08 23:51 | -15.36416 | 52.88081 | 36909 ft | 489 kts | 154° |
| 2026-05-08 23:52 | -15.42654 | 52.90955 | 36909 ft | 489 kts | 154° |
| 2026-05-08 23:52 | -15.48910 | 52.93840 | 36909 ft | 489 kts | 154° |
| 2026-05-08 23:53 | -15.55121 | 52.96706 | 36909 ft | 489 kts | 154° |
| 2026-05-08 23:53 | -15.61345 | 52.99580 | 36909 ft | 489 kts | 154° |
| 2026-05-08 23:54 | -15.67605 | 53.02472 | 36910 ft | 489 kts | 154° |
| 2026-05-08 23:55 | -15.76967 | 53.06802 | 36910 ft | 489 kts | 154° |
| 2026-05-08 23:55 | -15.83164 | 53.09670 | 36909 ft | 488 kts | 154° |
| 2026-05-08 23:56 | -15.89389 | 53.12554 | 36909 ft | 488 kts | 154° |
| 2026-05-08 23:56 | -15.95637 | 53.15449 | 36913 ft | 488 kts | 154° |
| 2026-05-08 23:57 | -16.01837 | 53.18325 | 36908 ft | 487 kts | 154° |
| 2026-05-08 23:57 | -16.08079 | 53.21222 | 36911 ft | 488 kts | 154° |
| 2026-05-08 23:58 | -16.14259 | 53.24092 | 36909 ft | 488 kts | 154° |
| 2026-05-08 23:58 | -16.20464 | 53.26976 | 36908 ft | 487 kts | 154° |
| 2026-05-08 23:59 | -16.26681 | 53.29867 | 36907 ft | 487 kts | 154° |
| 2026-05-08 23:59 | -16.32895 | 53.32759 | 36909 ft | 487 kts | 154° |
| 2026-05-09 00:00 | -16.39082 | 53.35641 | 36906 ft | 486 kts | 154° |
| 2026-05-09 00:00 | -16.45285 | 53.38531 | 36909 ft | 487 kts | 154° |
| 2026-05-09 00:01 | -16.51509 | 53.41434 | 36909 ft | 486 kts | 154° |
| 2026-05-09 00:01 | -16.57708 | 53.44327 | 36907 ft | 486 kts | 154° |
| 2026-05-09 00:02 | -16.63874 | 53.47208 | 36908 ft | 486 kts | 154° |
| 2026-05-09 00:02 | -16.70065 | 53.50101 | 36908 ft | 486 kts | 154° |
| 2026-05-09 00:03 | -16.76234 | 53.52987 | 36907 ft | 486 kts | 154° |
| 2026-05-09 00:03 | -16.82400 | 53.55873 | 36911 ft | 486 kts | 154° |
| 2026-05-09 00:04 | -16.88605 | 53.58779 | 36908 ft | 486 kts | 154° |
| 2026-05-09 00:04 | -16.94771 | 53.61669 | 36907 ft | 485 kts | 154° |
| 2026-05-09 00:05 | -17.00925 | 53.64556 | 36908 ft | 485 kts | 154° |
| 2026-05-09 00:05 | -17.07117 | 53.67462 | 36908 ft | 485 kts | 154° |
| 2026-05-09 00:06 | -17.13265 | 53.70351 | 36913 ft | 485 kts | 154° |
| 2026-05-09 00:06 | -17.19426 | 53.73247 | 36908 ft | 485 kts | 154° |
| 2026-05-09 00:07 | -17.31827 | 53.79083 | 36909 ft | 485 kts | 154° |
| 2026-05-09 00:07 | -17.56313 | 53.90632 | 36910 ft | 484 kts | 154° |
| 2026-05-09 00:08 | -17.80859 | 54.02244 | 36908 ft | 484 kts | 154° |
| 2026-05-09 00:08 | -18.05164 | 54.13777 | 36909 ft | 484 kts | 154° |
| 2026-05-09 00:09 | -18.29361 | 54.25201 | 36908 ft | 484 kts | 154° |
| 2026-05-09 00:09 | -18.49142 | 54.33565 | 36895 ft | 487 kts | 171° |
| 2026-05-09 00:10 | -18.55920 | 54.33529 | 36894 ft | 491 kts | 188° |
| 2026-05-09 00:10 | -18.62435 | 54.31342 | 36895 ft | 495 kts | 206° |
| 2026-05-09 00:11 | -18.68080 | 54.27143 | 36894 ft | 497 kts | 224° |
| 2026-05-09 00:11 | -18.72381 | 54.21428 | 36909 ft | 499 kts | 234° |
| 2026-05-09 00:12 | -18.76229 | 54.15465 | 36909 ft | 498 kts | 235° |
| 2026-05-09 00:12 | -18.80102 | 54.09425 | 36909 ft | 499 kts | 235° |
| 2026-05-09 00:13 | -18.83982 | 54.03354 | 36909 ft | 499 kts | 235° |
| 2026-05-09 00:13 | -18.87840 | 53.97301 | 36909 ft | 499 kts | 235° |
| 2026-05-09 00:14 | -18.91720 | 53.91204 | 36909 ft | 499 kts | 235° |
| 2026-05-09 00:14 | -18.95583 | 53.85126 | 36909 ft | 500 kts | 235° |
| 2026-05-09 00:15 | -18.99460 | 53.79018 | 36906 ft | 499 kts | 235° |
| 2026-05-09 00:15 | -19.03310 | 53.72945 | 36911 ft | 500 kts | 235° |
| 2026-05-09 00:16 | -19.07709 | 53.67268 | 36921 ft | 499 kts | 222° |
| 2026-05-09 00:16 | -19.12781 | 53.62283 | 36911 ft | 499 kts | 221° |
| 2026-05-09 00:17 | -19.17896 | 53.57293 | 36908 ft | 499 kts | 221° |
| 2026-05-09 00:17 | -19.22982 | 53.52335 | 36908 ft | 499 kts | 221° |
| 2026-05-09 00:18 | -19.28117 | 53.47328 | 36910 ft | 499 kts | 221° |
| 2026-05-09 00:18 | -19.33254 | 53.42440 | 36911 ft | 499 kts | 216° |
| 2026-05-09 00:19 | -19.39076 | 53.38419 | 36908 ft | 499 kts | 210° |
| 2026-05-09 00:19 | -19.44955 | 53.34564 | 36911 ft | 498 kts | 211° |
| 2026-05-09 00:20 | -19.50883 | 53.30678 | 36908 ft | 499 kts | 211° |
| 2026-05-09 00:20 | -19.56771 | 53.26816 | 36908 ft | 499 kts | 211° |
| 2026-05-09 00:21 | -19.62688 | 53.22934 | 36908 ft | 499 kts | 211° |
| 2026-05-09 00:21 | -19.68587 | 53.19060 | 36909 ft | 500 kts | 211° |
| 2026-05-09 00:22 | -19.74509 | 53.15169 | 36908 ft | 499 kts | 211° |
| 2026-05-09 00:22 | -19.80429 | 53.11275 | 36909 ft | 500 kts | 211° |
| 2026-05-09 00:23 | -19.86681 | 53.08158 | 36918 ft | 499 kts | 199° |
| 2026-05-09 00:23 | -19.93263 | 53.05569 | 36909 ft | 498 kts | 199° |
| 2026-05-09 00:24 | -19.99757 | 53.03033 | 36906 ft | 498 kts | 197° |
| 2026-05-09 00:24 | -20.06582 | 53.01731 | 36915 ft | 495 kts | 179° |
| 2026-05-09 00:25 | -20.13433 | 53.02715 | 36915 ft | 490 kts | 161° |
| 2026-05-09 00:25 | -20.19535 | 53.05818 | 36914 ft | 486 kts | 143° |
| 2026-05-09 00:26 | -20.24371 | 53.10709 | 36916 ft | 482 kts | 125° |
| 2026-05-09 00:26 | -20.27644 | 53.16902 | 36916 ft | 480 kts | 112° |
| 2026-05-09 00:27 | -20.30073 | 53.23506 | 36910 ft | 478 kts | 108° |
| 2026-05-09 00:27 | -20.32142 | 53.30219 | 36910 ft | 478 kts | 106° |
| 2026-05-09 00:28 | -20.34010 | 53.36994 | 36910 ft | 477 kts | 104° |
| 2026-05-09 00:28 | -20.34893 | 53.40384 | 36904 ft | 462 kts | 104° |
| 2026-05-09 00:28 | -20.35722 | 53.43642 | 36849 ft | 447 kts | 104° |
| 2026-05-09 00:28 | -20.36512 | 53.46802 | 36402 ft | 441 kts | 104° |
| 2026-05-09 00:29 | -20.37288 | 53.49963 | 35526 ft | 444 kts | 103° |
| 2026-05-09 00:29 | -20.38062 | 53.53160 | 34463 ft | 450 kts | 103° |
| 2026-05-09 00:29 | -20.38839 | 53.56411 | 33273 ft | 459 kts | 103° |
| 2026-05-09 00:29 | -20.39617 | 53.59697 | 32029 ft | 468 kts | 103° |
| 2026-05-09 00:30 | -20.40409 | 53.63060 | 31133 ft | 471 kts | 103° |
| 2026-05-09 00:30 | -20.41203 | 53.66450 | 30611 ft | 465 kts | 102° |
| 2026-05-09 00:30 | -20.41978 | 53.69764 | 30172 ft | 458 kts | 102° |
| 2026-05-09 00:30 | -20.42737 | 53.73021 | 29673 ft | 452 kts | 102° |
| 2026-05-09 00:31 | -20.43492 | 53.76266 | 29076 ft | 448 kts | 102° |
| 2026-05-09 00:31 | -20.44232 | 53.79453 | 28455 ft | 445 kts | 102° |
| 2026-05-09 00:31 | -20.44966 | 53.82619 | 27826 ft | 442 kts | 102° |
| 2026-05-09 00:31 | -20.45697 | 53.85780 | 27219 ft | 439 kts | 102° |
| 2026-05-09 00:32 | -20.46424 | 53.88927 | 26649 ft | 434 kts | 102° |
| 2026-05-09 00:32 | -20.47139 | 53.92024 | 26055 ft | 431 kts | 102° |
| 2026-05-09 00:32 | -20.47845 | 53.95083 | 25456 ft | 428 kts | 102° |
| 2026-05-09 00:32 | -20.48557 | 53.98176 | 24854 ft | 425 kts | 102° |
| 2026-05-09 00:33 | -20.49253 | 54.01202 | 24253 ft | 422 kts | 102° |
| 2026-05-09 00:33 | -20.49943 | 54.04205 | 23640 ft | 419 kts | 102° |
| 2026-05-09 00:33 | -20.50638 | 54.07230 | 23038 ft | 415 kts | 102° |
| 2026-05-09 00:33 | -20.51319 | 54.10198 | 22386 ft | 414 kts | 102° |
| 2026-05-09 00:34 | -20.51998 | 54.13162 | 21772 ft | 411 kts | 102° |
| 2026-05-09 00:34 | -20.52672 | 54.16102 | 21243 ft | 407 kts | 102° |
| 2026-05-09 00:34 | -20.53337 | 54.19008 | 20737 ft | 402 kts | 102° |
| 2026-05-09 00:34 | -20.53986 | 54.21848 | 20244 ft | 397 kts | 103° |
| 2026-05-09 00:35 | -20.54636 | 54.24692 | 19741 ft | 393 kts | 103° |
| 2026-05-09 00:35 | -20.55280 | 54.27514 | 19245 ft | 388 kts | 103° |
| 2026-05-09 00:35 | -20.55909 | 54.30271 | 18763 ft | 384 kts | 103° |
| 2026-05-09 00:35 | -20.56540 | 54.33037 | 18273 ft | 380 kts | 103° |
| 2026-05-09 00:36 | -20.57155 | 54.35738 | 17798 ft | 377 kts | 103° |
| 2026-05-09 00:36 | -20.57298 | 54.36366 | 17688 ft | 379 kts | 103° |
| 2026-05-09 00:36 | -20.57887 | 54.38960 | 18107 ft | 377 kts | 106° |
| 2026-05-09 00:36 | -20.58492 | 54.41624 | 17682 ft | 371 kts | 105° |
| 2026-05-09 00:37 | -20.59101 | 54.44303 | 17136 ft | 367 kts | 105° |
| 2026-05-09 00:37 | -20.59697 | 54.46923 | 16576 ft | 365 kts | 105° |
| 2026-05-09 00:37 | -20.60289 | 54.49530 | 15935 ft | 361 kts | 105° |
| 2026-05-09 00:37 | -20.60881 | 54.52138 | 15283 ft | 358 kts | 104° |
| 2026-05-09 00:38 | -20.61457 | 54.54680 | 14653 ft | 355 kts | 104° |
| 2026-05-09 00:38 | -20.61853 | 54.56426 | 14169 ft | 355 kts | 104° |
| 2026-05-09 00:38 | -20.62430 | 54.58980 | 13603 ft | 353 kts | 104° |
| 2026-05-09 00:38 | -20.63002 | 54.61510 | 13148 ft | 350 kts | 104° |
| 2026-05-09 00:39 | -20.63566 | 54.64006 | 12701 ft | 347 kts | 104° |
| 2026-05-09 00:39 | -20.64130 | 54.66501 | 12244 ft | 344 kts | 103° |
| 2026-05-09 00:39 | -20.64690 | 54.68984 | 11782 ft | 342 kts | 103° |
| 2026-05-09 00:39 | -20.65239 | 54.71416 | 11327 ft | 340 kts | 103° |
| 2026-05-09 00:40 | -20.65792 | 54.73871 | 10866 ft | 337 kts | 103° |
| 2026-05-09 00:40 | -20.66330 | 54.76260 | 10596 ft | 329 kts | 103° |
| 2026-05-09 00:40 | -20.66856 | 54.78597 | 10515 ft | 314 kts | 103° |
| 2026-05-09 00:41 | -20.67837 | 54.82956 | 10295 ft | 291 kts | 103° |
| 2026-05-09 00:41 | -20.68298 | 54.85005 | 10172 ft | 281 kts | 103° |
| 2026-05-09 00:41 | -20.68749 | 54.87013 | 10025 ft | 272 kts | 103° |
| 2026-05-09 00:41 | -20.69184 | 54.88954 | 9682 ft | 271 kts | 103° |
| 2026-05-09 00:42 | -20.69624 | 54.90915 | 9319 ft | 271 kts | 103° |
| 2026-05-09 00:42 | -20.70064 | 54.92879 | 8979 ft | 271 kts | 103° |
| 2026-05-09 00:42 | -20.70496 | 54.94812 | 8654 ft | 269 kts | 103° |
| 2026-05-09 00:42 | -20.70933 | 54.96761 | 8329 ft | 268 kts | 103° |
| 2026-05-09 00:43 | -20.71361 | 54.98676 | 8012 ft | 267 kts | 103° |
| 2026-05-09 00:43 | -20.71794 | 55.00613 | 7691 ft | 265 kts | 103° |
| 2026-05-09 00:43 | -20.72218 | 55.02511 | 7377 ft | 264 kts | 103° |
| 2026-05-09 00:43 | -20.72645 | 55.04422 | 7061 ft | 263 kts | 103° |
| 2026-05-09 00:44 | -20.73065 | 55.06302 | 6750 ft | 261 kts | 103° |
| 2026-05-09 00:44 | -20.73485 | 55.08187 | 6439 ft | 260 kts | 103° |
| 2026-05-09 00:44 | -20.73902 | 55.10053 | 6134 ft | 258 kts | 103° |
| 2026-05-09 00:44 | -20.74316 | 55.11914 | 5828 ft | 257 kts | 102° |
| 2026-05-09 00:45 | -20.74726 | 55.13753 | 5526 ft | 256 kts | 102° |
| 2026-05-09 00:45 | -20.75139 | 55.15609 | 5220 ft | 255 kts | 102° |
| 2026-05-09 00:45 | -20.75549 | 55.17451 | 4920 ft | 254 kts | 102° |
| 2026-05-09 00:45 | -20.75953 | 55.19270 | 4624 ft | 253 kts | 102° |
| 2026-05-09 00:46 | -20.76360 | 55.21099 | 4328 ft | 252 kts | 102° |
| 2026-05-09 00:46 | -20.76760 | 55.22905 | 4037 ft | 251 kts | 101° |
| 2026-05-09 00:46 | -20.77162 | 55.24712 | 3825 ft | 245 kts | 101° |
| 2026-05-09 00:46 | -20.77547 | 55.26442 | 3760 ft | 233 kts | 101° |
| 2026-05-09 00:47 | -20.77977 | 55.28070 | 3682 ft | 223 kts | 110° |
| 2026-05-09 00:47 | -20.78627 | 55.29546 | 3604 ft | 216 kts | 114° |
| 2026-05-09 00:47 | -20.79260 | 55.30953 | 3530 ft | 206 kts | 112° |
| 2026-05-09 00:47 | -20.79875 | 55.32323 | 3426 ft | 197 kts | 113° |
| 2026-05-09 00:48 | -20.80468 | 55.33591 | 3355 ft | 185 kts | 113° |
| 2026-05-09 00:48 | -20.81042 | 55.34801 | 3138 ft | 182 kts | 114° |
| 2026-05-09 00:48 | -20.81619 | 55.36010 | 2907 ft | 179 kts | 113° |
| 2026-05-09 00:48 | -20.82171 | 55.37172 | 2688 ft | 174 kts | 113° |
| 2026-05-09 00:49 | -20.82711 | 55.38311 | 2476 ft | 169 kts | 113° |
| 2026-05-09 00:49 | -20.83228 | 55.39407 | 2267 ft | 160 kts | 113° |
| 2026-05-09 00:49 | -20.83713 | 55.40434 | 2071 ft | 150 kts | 113° |
| 2026-05-09 00:49 | -20.84180 | 55.41427 | 1885 ft | 148 kts | 113° |
| 2026-05-09 00:50 | -20.84638 | 55.42397 | 1697 ft | 147 kts | 113° |
| 2026-05-09 00:50 | -20.85103 | 55.43382 | 1506 ft | 147 kts | 113° |
| 2026-05-09 00:50 | -20.85562 | 55.44356 | 1317 ft | 146 kts | 113° |
| 2026-05-09 00:50 | -20.86013 | 55.45315 | 1126 ft | 144 kts | 113° |
| 2026-05-09 00:51 | -20.86463 | 55.46270 | 941 ft | 143 kts | 113° |
| 2026-05-09 00:51 | -20.86906 | 55.47226 | 750 ft | 144 kts | 114° |
| 2026-05-09 00:51 | -20.87366 | 55.48177 | 566 ft | 144 kts | 114° |
| 2026-05-09 00:51 | -20.87810 | 55.49134 | 386 ft | 145 kts | 114° |
| 2026-05-09 00:52 | -20.88268 | 55.50106 | 190 ft | 145 kts | 115° |
| 2026-05-09 00:52 | -20.88711 | 55.51041 | 92 ft | 131 kts | 117° |
| 2026-05-09 00:52 | -20.89085 | 55.51837 | 104 ft | 94 kts | 114° |
| 2026-05-09 00:52 | -20.89247 | 55.52189 | 107 ft | 20 kts | 117° |
| 2026-05-09 00:53 | -20.89272 | 55.52238 | 108 ft | 0 kts | 124° |